createdAt,value
2022-11-29T00:01:22.426Z,101512.09
2022-11-29T00:03:49.211Z,101516.03
2022-11-29T00:06:18.757Z,101513.47
2022-11-29T00:08:46.444Z,101518.78
2022-11-29T00:11:43.562Z,101522.56
2022-11-29T00:14:12.662Z,101525.31
2022-11-29T00:16:42.478Z,101523.63
2022-11-29T00:19:11.207Z,101525.50
2022-11-29T00:21:37.884Z,101527.38
2022-11-29T00:24:05.166Z,101527.75
2022-11-29T00:26:32.047Z,101529.00
2022-11-29T00:28:59.132Z,101535.34
2022-11-29T00:31:31.960Z,101533.63
2022-11-29T00:34:00.575Z,101537.91
2022-11-29T00:36:28.158Z,101539.97
2022-11-29T00:38:54.921Z,101534.69
2022-11-29T00:41:21.538Z,101537.81
2022-11-29T00:43:48.449Z,101541.22
2022-11-29T00:46:15.266Z,101541.41
2022-11-29T00:48:42.215Z,101543.28
2022-11-29T00:51:09.170Z,101539.88
2022-11-29T00:53:36.524Z,101542.63
2022-11-29T00:56:04.519Z,101542.63
2022-11-29T00:58:31.600Z,101543.00
2022-11-29T01:00:58.536Z,101543.00
2022-11-29T01:03:25.345Z,101540.63
2022-11-29T01:05:52.204Z,101537.25
2022-11-29T01:08:19.242Z,101554.16
2022-11-29T01:10:45.852Z,101553.13
2022-11-29T01:13:12.518Z,101549.53
2022-11-29T01:15:39.212Z,101549.91
2022-11-29T01:18:05.853Z,101555.38
2022-11-29T01:20:32.475Z,101557.47
2022-11-29T01:22:59.207Z,101561.25
2022-11-29T01:25:25.919Z,101565.88
2022-11-29T01:27:52.548Z,101576.66
2022-11-29T01:30:19.276Z,101572.59
2022-11-29T01:32:46.105Z,101570.91
2022-11-29T01:35:12.697Z,101575.34
2022-11-29T01:37:39.398Z,101579.13
2022-11-29T01:40:06.839Z,101571.09
2022-11-29T01:42:33.445Z,101572.09
2022-11-29T01:45:20.414Z,101577.41
2022-11-29T01:47:51.883Z,101583.06
2022-11-29T01:50:19.019Z,101593.22
2022-11-29T01:52:46.183Z,101583.44
2022-11-29T01:55:13.468Z,101586.19
2022-11-29T01:57:42.485Z,101583.63
2022-11-29T02:00:17.286Z,101586.38
2022-11-29T02:02:53.847Z,101583.81
2022-11-29T02:05:21.497Z,101585.72
2022-11-29T02:07:52.083Z,101583.38
2022-11-29T02:10:19.737Z,101588.84
2022-11-29T02:13:28.554Z,101581.25
2022-11-29T02:16:15.649Z,101590.91
2022-11-29T02:18:53.539Z,101594.69
2022-11-29T02:21:32.690Z,101594.69
2022-11-29T02:24:20.329Z,101591.97
2022-11-29T02:26:59.738Z,101597.63
2022-11-29T02:29:32.071Z,101595.72
2022-11-29T02:32:35.783Z,101605.00
2022-11-29T02:35:15.793Z,101601.78
2022-11-29T02:38:02.586Z,101614.25
2022-11-29T02:40:38.354Z,101606.41
2022-11-29T02:43:18.542Z,101619.25
2022-11-29T02:46:35.071Z,101617.75
2022-11-29T02:49:23.023Z,101623.22
2022-11-29T02:52:00.750Z,101624.28
2022-11-29T02:54:36.295Z,101624.47
2022-11-29T02:57:14.462Z,101632.50
2022-11-29T03:00:03.906Z,101636.25
2022-11-29T03:02:57.706Z,101632.88
2022-11-29T03:06:03.774Z,101637.50
2022-11-29T03:08:52.318Z,101638.72
2022-11-29T03:11:43.821Z,101640.41
2022-11-29T03:14:19.603Z,101645.03
2022-11-29T03:16:59.718Z,101643.53
2022-11-29T03:19:53.693Z,101649.88
2022-11-29T03:22:26.274Z,101655.53
2022-11-29T03:25:14.419Z,101644.72
2022-11-29T03:27:52.438Z,101649.34
2022-11-29T03:30:19.823Z,101656.88
2022-11-29T03:33:05.226Z,101664.91
2022-11-29T03:35:58.283Z,101663.59
2022-11-29T03:38:30.814Z,101672.69
2022-11-29T03:41:18.595Z,101671.63
2022-11-29T03:43:57.403Z,101670.47
2022-11-29T03:46:37.233Z,101685.69
2022-11-29T03:49:13.471Z,101684.00
2022-11-29T03:51:58.728Z,101688.63
2022-11-29T03:54:40.462Z,101685.19
2022-11-29T03:57:07.277Z,101684.72
2022-11-29T03:59:58.136Z,101688.63
2022-11-29T04:02:43.289Z,101692.59
2022-11-29T04:05:29.249Z,101691.91
2022-11-29T04:08:32.995Z,101696.53
2022-11-29T04:11:17.556Z,101701.19
2022-11-29T04:13:56.867Z,101695.00
2022-11-29T04:17:00.638Z,101703.91
2022-11-29T04:19:51.735Z,101701.53
2022-11-29T04:22:21.084Z,101710.78
2022-11-29T04:25:11.947Z,101708.22
2022-11-29T04:28:03.360Z,101710.13
2022-11-29T04:30:47.839Z,101711.13
2022-11-29T04:33:46.749Z,101711.13
2022-11-29T04:36:50.462Z,101709.44
2022-11-29T04:39:58.241Z,101711.31
2022-11-29T04:43:01.372Z,101716.97
2022-11-29T04:45:46.302Z,101722.44
2022-11-29T04:48:27.983Z,101719.88
2022-11-29T04:51:36.701Z,101727.44
2022-11-29T04:54:18.640Z,101730.38
2022-11-29T04:56:52.219Z,101732.25
2022-11-29T04:59:26.500Z,101730.19
2022-11-29T05:01:58.717Z,101733.28
2022-11-29T05:04:36.898Z,101740.81
2022-11-29T05:07:08.170Z,101739.97
2022-11-29T05:09:46.852Z,101743.38
2022-11-29T05:12:19.547Z,101745.44
2022-11-29T05:15:17.121Z,101747.53
2022-11-29T05:17:53.133Z,101754.00
2022-11-29T05:20:48.680Z,101746.84
2022-11-29T05:23:59.155Z,101755.91
2022-11-29T05:26:31.880Z,101759.66
2022-11-29T05:29:26.148Z,101761.41
2022-11-29T05:32:04.803Z,101764.31
2022-11-29T05:34:37.394Z,101765.66
2022-11-29T05:37:25.761Z,101766.53
2022-11-29T05:40:20.946Z,101769.09
2022-11-29T05:43:13.514Z,101779.00
2022-11-29T05:46:07.598Z,101777.97
2022-11-29T05:48:53.124Z,101784.31
2022-11-29T05:51:34.511Z,101791.50
2022-11-29T05:54:13.768Z,101790.31
2022-11-29T05:56:55.631Z,101786.53
2022-11-29T05:59:27.554Z,101799.19
2022-11-29T06:02:09.531Z,101802.97
2022-11-29T06:04:59.896Z,101799.19
2022-11-29T06:07:32.394Z,101809.81
2022-11-29T06:10:11.616Z,101800.56
2022-11-29T06:12:38.972Z,101806.41
2022-11-29T06:15:17.677Z,101806.88
2022-11-29T06:17:44.185Z,101800.56
2022-11-29T06:20:41.870Z,101807.75
2022-11-29T06:23:25.763Z,101814.94
2022-11-29T06:26:10.966Z,101812.88
2022-11-29T06:29:04.249Z,101819.41
2022-11-29T06:31:43.828Z,101825.53
2022-11-29T06:34:10.433Z,101821.97
2022-11-29T06:36:50.733Z,101820.06
2022-11-29T06:39:17.541Z,101825.53
2022-11-29T06:41:44.649Z,101834.44
2022-11-29T06:44:11.627Z,101839.94
2022-11-29T06:46:47.823Z,101843.38
2022-11-29T06:49:30.991Z,101845.75
2022-11-29T06:52:12.583Z,101848.13
2022-11-29T06:54:50.955Z,101854.47
2022-11-29T06:57:40.791Z,101851.53
2022-11-29T07:00:16.602Z,101850.53
2022-11-29T07:02:49.227Z,101867.63
2022-11-29T07:05:33.632Z,101852.06
2022-11-29T07:08:13.960Z,101858.44
2022-11-29T07:10:41.921Z,101855.84
2022-11-29T07:13:12.508Z,101869.41
2022-11-29T07:15:49.066Z,101880.84
2022-11-29T07:18:34.123Z,101887.19
2022-11-29T07:21:09.829Z,101886.34
2022-11-29T07:23:55.665Z,101885.50
2022-11-29T07:26:56.579Z,101900.56
2022-11-29T07:29:47.347Z,101904.16
2022-11-29T07:32:40.159Z,101901.41
2022-11-29T07:35:09.670Z,101899.50
2022-11-29T07:38:07.878Z,101898.69
2022-11-29T07:40:53.045Z,101911.19
2022-11-29T07:43:49.017Z,101909.13
2022-11-29T07:46:15.658Z,101902.94
2022-11-29T07:48:42.230Z,101911.88
2022-11-29T07:51:09.349Z,101918.19
2022-11-29T07:53:41.958Z,101915.25
2022-11-29T07:56:12.642Z,101920.75
2022-11-29T07:58:39.740Z,101928.63
2022-11-29T08:01:06.615Z,101925.88
2022-11-29T08:03:35.387Z,101931.38
2022-11-29T08:06:02.567Z,101931.00
2022-11-29T08:08:29.187Z,101931.00
2022-11-29T08:10:59.379Z,101928.28
2022-11-29T08:13:26.829Z,101937.84
2022-11-29T08:15:53.735Z,101935.97
2022-11-29T08:18:21.557Z,101943.34
2022-11-29T08:20:48.248Z,101940.94
2022-11-29T08:23:15.635Z,101953.59
2022-11-29T08:25:42.350Z,101953.94
2022-11-29T08:28:12.287Z,101955.88
2022-11-29T08:30:38.923Z,101960.66
2022-11-29T08:33:05.692Z,101962.53
2022-11-29T08:35:34.377Z,101966.50
2022-11-29T08:38:00.936Z,101965.63
2022-11-29T08:40:27.543Z,101969.25
2022-11-29T08:42:57.955Z,101981.72
2022-11-29T08:45:24.578Z,101979.16
2022-11-29T08:47:51.151Z,101968.88
2022-11-29T08:50:18.318Z,101971.97
2022-11-29T08:53:05.728Z,101977.91
2022-11-29T08:55:35.087Z,101985.47
2022-11-29T08:58:08.089Z,101982.72
2022-11-29T09:00:35.833Z,101982.69
2022-11-29T09:03:22.887Z,101981.81
2022-11-29T09:05:50.093Z,101984.03
2022-11-29T09:08:16.797Z,101978.88
2022-11-29T09:10:43.752Z,101982.28
2022-11-29T09:13:10.872Z,101981.25
2022-11-29T09:15:38.667Z,101983.41
2022-11-29T09:18:05.881Z,101983.66
2022-11-29T09:20:33.847Z,101988.81
2022-11-29T09:23:01.561Z,101991.63
2022-11-29T09:25:28.791Z,101986.84
2022-11-29T09:27:57.857Z,101994.38
2022-11-29T09:30:24.445Z,101992.69
2022-11-29T09:32:51.002Z,102003.31
2022-11-29T09:35:17.554Z,101994.72
2022-11-29T09:37:44.286Z,102005.72
2022-11-29T09:40:23.609Z,102007.41
2022-11-29T09:43:04.571Z,102007.41
2022-11-29T09:45:36.565Z,102018.38
2022-11-29T09:48:31.196Z,102013.78
2022-11-29T09:51:14.561Z,102008.28
2022-11-29T09:53:57.613Z,102010.84
2022-11-29T09:56:30.785Z,102014.63
2022-11-29T09:59:02.681Z,102019.06
2022-11-29T10:01:37.664Z,102012.88
2022-11-29T10:04:12.462Z,102013.72
2022-11-29T10:06:43.369Z,102020.50
2022-11-29T10:09:23.015Z,102014.00
2022-11-29T10:12:14.647Z,102021.97
2022-11-29T10:14:46.078Z,102017.63
2022-11-29T10:17:29.711Z,102021.38
2022-11-29T10:20:03.909Z,102022.78
2022-11-29T10:22:40.876Z,102024.50
2022-11-29T10:25:10.486Z,102030.34
2022-11-29T10:27:40.765Z,102024.19
2022-11-29T10:30:14.813Z,102026.25
2022-11-29T10:32:44.234Z,102027.97
2022-11-29T10:35:15.920Z,102032.25
2022-11-29T10:37:48.732Z,102028.66
2022-11-29T10:40:35.317Z,102029.69
2022-11-29T10:43:02.906Z,102028.81
2022-11-29T10:45:35.064Z,102034.31
2022-11-29T10:48:17.476Z,102035.00
2022-11-29T10:50:48.541Z,102040.50
2022-11-29T10:53:18.732Z,102044.06
2022-11-29T10:56:00.017Z,102040.66
2022-11-29T10:58:29.263Z,102035.34
2022-11-29T11:01:00.423Z,102035.34
2022-11-29T11:03:52.852Z,102033.44
2022-11-29T11:06:41.315Z,102032.63
2022-11-29T11:09:16.854Z,102033.09
2022-11-29T11:11:51.599Z,102033.28
2022-11-29T11:14:39.758Z,102031.03
2022-11-29T11:17:31.298Z,102044.22
2022-11-29T11:20:05.862Z,102038.91
2022-11-29T11:22:33.932Z,102038.91
2022-11-29T11:25:07.720Z,102042.72
2022-11-29T11:27:40.116Z,102051.94
2022-11-29T11:30:18.706Z,102043.72
2022-11-29T11:36:38.909Z,102050.25
2022-11-29T11:39:19.021Z,102052.28
2022-11-29T11:42:05.770Z,102057.78
2022-11-29T11:44:47.552Z,102054.00
2022-11-29T11:47:24.543Z,102054.00
2022-11-29T11:50:07.197Z,102057.44
2022-11-29T11:52:50.647Z,102066.34
2022-11-29T11:55:32.207Z,102057.94
2022-11-29T11:58:09.844Z,102061.69
2022-11-29T12:01:06.743Z,102070.63
2022-11-29T12:03:54.666Z,102071.50
2022-11-29T12:06:44.564Z,102066.00
2022-11-29T12:09:49.442Z,102067.69
2022-11-29T12:12:33.412Z,102072.50
2022-11-29T12:15:08.396Z,102075.25
2022-11-29T12:17:37.984Z,102074.25
2022-11-29T12:20:07.518Z,102079.56
2022-11-29T12:22:46.619Z,102074.06
2022-11-29T12:25:25.104Z,102082.13
2022-11-29T12:27:51.868Z,102083.81
2022-11-29T12:30:19.723Z,102086.38
2022-11-29T12:33:23.596Z,102092.75
2022-11-29T12:36:24.184Z,102095.50
2022-11-29T12:39:17.019Z,102096.50
2022-11-29T12:41:54.211Z,102105.78
2022-11-29T12:44:47.737Z,102107.47
2022-11-29T12:47:39.384Z,102102.34
2022-11-29T12:50:24.677Z,102109.22
2022-11-29T12:53:08.282Z,102107.47
2022-11-29T12:55:44.183Z,102110.91
2022-11-29T12:58:34.725Z,102111.28
2022-11-29T13:01:21.481Z,102110.56
2022-11-29T13:04:02.763Z,102116.06
2022-11-29T13:07:00.828Z,102114.84
2022-11-29T13:09:36.432Z,102109.34
2022-11-29T13:12:19.096Z,102105.06
2022-11-29T13:15:05.351Z,102109.88
2022-11-29T13:17:41.026Z,102124.47
2022-11-29T13:20:24.833Z,102110.91
2022-11-29T13:23:06.619Z,102120.69
2022-11-29T13:25:40.770Z,102110.06
2022-11-29T13:28:32.395Z,102114.38
2022-11-29T13:31:06.203Z,102118.13
2022-11-29T13:33:46.544Z,102118.63
2022-11-29T13:36:13.061Z,102120.50
2022-11-29T13:38:49.251Z,102117.41
2022-11-29T13:41:31.131Z,102117.41
2022-11-29T13:44:04.346Z,102119.16
2022-11-29T13:46:46.901Z,102119.97
2022-11-29T13:49:49.932Z,102114.50
2022-11-29T13:52:28.660Z,102117.41
2022-11-29T13:55:31.453Z,102118.28
2022-11-29T13:58:29.359Z,102116.06
2022-11-29T14:01:01.948Z,102121.19
2022-11-29T14:03:40.895Z,102118.47
2022-11-29T14:06:23.525Z,102118.28
2022-11-29T14:09:17.743Z,102117.41
2022-11-29T14:11:42.356Z,102119.16
2022-11-29T14:14:21.143Z,102115.34
2022-11-29T14:16:52.244Z,102123.88
2022-11-29T14:19:24.697Z,102120.84
2022-11-29T14:21:56.243Z,102124.75
2022-11-29T14:24:32.074Z,102126.00
2022-11-29T14:27:08.881Z,102126.84
2022-11-29T14:29:47.777Z,102134.41
2022-11-29T14:32:46.372Z,102139.72
2022-11-29T14:35:22.673Z,102132.53
2022-11-29T14:38:10.839Z,102141.41
2022-11-29T14:40:40.526Z,102142.13
2022-11-29T14:43:32.609Z,102143.63
2022-11-29T14:46:20.321Z,102147.25
2022-11-29T14:48:55.237Z,102148.28
2022-11-29T14:51:27.551Z,102145.22
2022-11-29T14:54:15.259Z,102156.38
2022-11-29T14:56:45.045Z,102156.53
2022-11-29T14:59:48.886Z,102153.81
2022-11-29T15:02:38.621Z,102159.66
2022-11-29T15:05:13.751Z,102157.06
2022-11-29T15:07:50.432Z,102160.84
2022-11-29T15:10:25.595Z,102152.44
2022-11-29T15:12:53.145Z,102160.84
2022-11-29T15:15:44.537Z,102163.44
2022-11-29T15:18:36.696Z,102167.19
2022-11-29T15:21:40.979Z,102170.09
2022-11-29T15:24:16.681Z,102175.78
2022-11-29T15:26:58.006Z,102175.13
2022-11-29T15:29:25.519Z,102166.19
2022-11-29T15:31:57.788Z,102173.38
2022-11-29T15:34:39.930Z,102168.06
2022-11-29T15:37:06.562Z,102172.03
2022-11-29T15:39:37.686Z,102180.94
2022-11-29T15:42:15.898Z,102183.69
2022-11-29T15:44:47.351Z,102180.94
2022-11-29T15:47:21.269Z,102185.56
2022-11-29T15:49:48.124Z,102179.22
2022-11-29T15:52:29.954Z,102183.00
2022-11-29T15:55:03.430Z,102176.28
2022-11-29T15:57:37.914Z,102179.38
2022-11-29T16:00:07.387Z,102184.22
2022-11-29T16:02:38.377Z,102177.88
2022-11-29T16:05:09.902Z,102187.13
2022-11-29T16:07:38.989Z,102184.41
2022-11-29T16:10:14.775Z,102184.41
2022-11-29T16:12:59.947Z,102184.22
2022-11-29T16:15:32.382Z,102189.72
2022-11-29T16:18:13.752Z,102181.31
2022-11-29T16:20:40.848Z,102182.31
2022-11-29T16:23:15.157Z,102182.31
2022-11-29T16:25:55.453Z,102185.06
2022-11-29T16:28:22.753Z,102180.59
2022-11-29T16:30:49.468Z,102188.84
2022-11-29T16:33:21.646Z,102187.97
2022-11-29T16:35:48.855Z,102187.13
2022-11-29T16:38:21.830Z,102190.06
2022-11-29T16:41:20.958Z,102191.75
2022-11-29T16:43:53.302Z,102184.75
2022-11-29T16:46:19.895Z,102184.56
2022-11-29T16:48:47.963Z,102186.28
2022-11-29T16:51:23.629Z,102186.44
2022-11-29T16:53:54.154Z,102197.25
2022-11-29T16:56:25.098Z,102198.13
2022-11-29T16:59:25.853Z,102195.38
2022-11-29T17:01:41.581Z,102196.38
2022-11-29T17:04:09.195Z,102198.13
2022-11-29T17:06:36.145Z,102192.28
2022-11-29T17:09:03.230Z,102201.22
2022-11-29T17:11:29.803Z,102202.22
2022-11-29T17:13:56.415Z,102200.50
2022-11-29T17:16:24.570Z,102202.75
2022-11-29T17:18:53.012Z,102212.19
2022-11-29T17:21:21.120Z,102207.22
2022-11-29T17:23:48.032Z,102209.25
2022-11-29T17:26:15.542Z,102213.88
2022-11-29T17:28:44.905Z,102220.25
2022-11-29T17:31:13.072Z,102222.13
2022-11-29T17:33:40.163Z,102225.22
2022-11-29T17:36:08.158Z,102229.00
2022-11-29T17:38:35.695Z,102217.31
2022-11-29T17:41:09.756Z,102237.56
2022-11-29T17:43:37.239Z,102241.19
2022-11-29T17:46:12.824Z,102239.63
2022-11-29T17:48:40.392Z,102236.88
2022-11-29T17:51:28.901Z,102235.16
2022-11-29T17:53:55.107Z,102237.38
2022-11-29T17:56:29.058Z,102242.69
2022-11-29T17:58:58.134Z,102234.63
2022-11-29T18:01:27.407Z,102246.31
2022-11-29T18:03:56.839Z,102234.63
2022-11-29T18:06:26.809Z,102237.56
2022-11-29T18:08:56.201Z,102243.03
2022-11-29T18:11:28.789Z,102249.41
2022-11-29T18:13:56.869Z,102240.50
2022-11-29T18:16:25.943Z,102250.59
2022-11-29T18:19:00.896Z,102253.34
2022-11-29T18:21:28.094Z,102254.34
2022-11-29T18:23:55.262Z,102260.72
2022-11-29T18:26:24.266Z,102260.03
2022-11-29T18:28:51.467Z,102264.31
2022-11-29T18:31:33.085Z,102262.75
2022-11-29T18:34:02.176Z,102267.25
2022-11-29T18:36:32.798Z,102261.94
2022-11-29T18:39:06.500Z,102263.97
2022-11-29T18:41:33.392Z,102273.59
2022-11-29T18:44:02.757Z,102275.31
2022-11-29T18:46:32.996Z,102268.28
2022-11-29T18:49:02.438Z,102276.00
2022-11-29T18:51:30.696Z,102281.13
2022-11-29T18:53:58.528Z,102288.69
2022-11-29T18:56:27.769Z,102295.38
2022-11-29T18:58:59.532Z,102294.19
2022-11-29T19:01:32.100Z,102290.72
2022-11-29T19:04:00.440Z,102302.56
2022-11-29T19:06:39.272Z,102296.06
2022-11-29T19:09:09.846Z,102298.97
2022-11-29T19:11:36.516Z,102292.78
2022-11-29T19:14:05.835Z,102291.06
2022-11-29T19:16:34.426Z,102296.56
2022-11-29T19:19:01.562Z,102310.09
2022-11-29T19:21:31.830Z,102305.81
2022-11-29T19:24:04.036Z,102301.34
2022-11-29T19:26:32.899Z,102306.50
2022-11-29T19:29:00.745Z,102311.31
2022-11-29T19:31:28.009Z,102311.31
2022-11-29T19:33:56.048Z,102307.53
2022-11-29T19:36:25.151Z,102312.16
2022-11-29T19:38:54.189Z,102315.94
2022-11-29T19:41:24.392Z,102310.44
2022-11-29T19:43:51.739Z,102318.84
2022-11-29T19:46:20.344Z,102312.50
2022-11-29T19:48:47.462Z,102310.63
2022-11-29T19:51:17.606Z,102316.09
2022-11-29T19:53:45.951Z,102306.50
2022-11-29T19:56:16.998Z,102312.66
2022-11-29T19:58:44.189Z,102318.16
2022-11-29T20:01:16.750Z,102327.25
2022-11-29T20:03:45.372Z,102327.41
2022-11-29T20:06:15.919Z,102335.66
2022-11-29T20:08:43.458Z,102333.78
2022-11-29T20:11:13.619Z,102337.34
2022-11-29T20:13:42.868Z,102333.94
2022-11-29T20:16:12.962Z,102331.34
2022-11-29T20:18:45.736Z,102335.81
2022-11-29T20:21:21.800Z,102339.44
2022-11-29T20:23:49.011Z,102341.47
2022-11-29T20:26:20.343Z,102337.69
2022-11-29T20:28:47.753Z,102348.66
2022-11-29T20:31:17.294Z,102340.59
2022-11-29T20:33:46.149Z,102345.06
2022-11-29T20:36:51.365Z,102347.81
2022-11-29T20:39:45.763Z,102353.31
2022-11-29T20:42:18.810Z,102352.44
2022-11-29T20:44:58.909Z,102349.88
2022-11-29T20:47:37.378Z,102346.25
2022-11-29T20:50:04.506Z,102354.47
2022-11-29T20:52:59.675Z,102364.44
2022-11-29T20:55:26.753Z,102358.25
2022-11-29T20:57:55.045Z,102365.44
2022-11-29T21:00:22.499Z,102365.44
2022-11-29T21:02:49.374Z,102362.03
2022-11-29T21:05:16.557Z,102361.34
2022-11-29T21:07:43.967Z,102353.81
2022-11-29T21:10:11.034Z,102358.44
2022-11-29T21:12:39.037Z,102354.16
2022-11-29T21:15:06.329Z,102357.56
2022-11-29T21:17:33.891Z,102356.00
2022-11-29T21:20:01.522Z,102362.03
2022-11-29T21:22:35.241Z,102359.28
2022-11-29T21:25:23.575Z,102360.31
2022-11-29T21:27:51.247Z,102362.03
2022-11-29T21:30:20.765Z,102356.00
2022-11-29T21:32:48.160Z,102357.88
2022-11-29T21:35:15.532Z,102362.38
2022-11-29T21:37:43.229Z,102356.88
2022-11-29T21:40:11.914Z,102357.22
2022-11-29T21:42:38.869Z,102359.09
2022-11-29T21:45:11.661Z,102356.50
2022-11-29T21:47:41.824Z,102362.00
2022-11-29T21:50:09.139Z,102363.03
2022-11-29T21:52:35.936Z,102358.38
2022-11-29T21:55:03.000Z,102354.97
2022-11-29T21:57:29.673Z,102359.59
2022-11-29T21:59:56.310Z,102361.28
2022-11-29T22:02:23.020Z,102363.03
2022-11-29T22:04:49.800Z,102367.81
2022-11-29T22:07:16.831Z,102370.56
2022-11-29T22:09:43.700Z,102371.44
2022-11-29T22:12:32.294Z,102366.28
2022-11-29T22:14:57.072Z,102365.41
2022-11-29T22:17:23.815Z,102376.38
2022-11-29T22:19:50.626Z,102359.91
2022-11-29T22:22:17.435Z,102364.41
2022-11-29T22:24:44.420Z,102369.88
2022-11-29T22:27:12.454Z,102366.44
2022-11-29T22:29:39.095Z,102372.81
2022-11-29T22:32:06.574Z,102368.16
2022-11-29T22:34:33.289Z,102358.22
2022-11-29T22:36:59.970Z,102357.50
2022-11-29T22:39:26.743Z,102355.81
2022-11-29T22:41:55.113Z,102358.22
2022-11-29T22:44:23.097Z,102362.00
2022-11-29T22:46:50.781Z,102363.00
2022-11-29T22:49:17.723Z,102371.22
2022-11-29T22:51:44.476Z,102376.72
2022-11-29T22:54:11.878Z,102372.44
2022-11-29T22:56:41.591Z,102375.72
2022-11-29T22:59:08.838Z,102376.72
2022-11-29T23:01:38.367Z,102373.28
2022-11-29T23:04:07.360Z,102374.13
2022-11-29T23:06:40.253Z,102381.53
2022-11-29T23:09:12.075Z,102379.63
2022-11-29T23:11:39.411Z,102382.53
2022-11-29T23:14:06.046Z,102386.31
2022-11-29T23:16:33.111Z,102387.16
2022-11-29T23:19:00.941Z,102391.78
2022-11-29T23:21:33.416Z,102395.41
2022-11-29T23:24:01.163Z,102402.75
2022-11-29T23:26:36.550Z,102401.88
2022-11-29T23:29:04.430Z,102407.53
2022-11-29T23:31:31.784Z,102404.78
2022-11-29T23:33:58.730Z,102402.03
2022-11-29T23:36:25.337Z,102408.41
2022-11-29T23:38:52.078Z,102412.19
2022-11-29T23:41:18.900Z,102411.16
2022-11-29T23:43:45.673Z,102414.94
2022-11-29T23:46:13.596Z,102411.44
2022-11-29T23:48:40.685Z,102407.81
2022-11-29T23:51:07.686Z,102419.53
2022-11-29T23:53:34.476Z,102411.44
2022-11-29T23:56:14.261Z,102413.47
2022-11-29T23:58:41.558Z,102408.88
